sensor_id;sensor_type;location;lat;lon;timestamp;P1;durP1;ratioP1;P2;durP2;ratioP2
51006;SDS011;37034;47.886;-3.904;2023-06-14T00:00:38;14.32;;;9.43;;
51006;SDS011;37034;47.886;-3.904;2023-06-14T00:03:06;14.77;;;10.70;;
51006;SDS011;37034;47.886;-3.904;2023-06-14T00:05:34;14.05;;;10.07;;
51006;SDS011;37034;47.886;-3.904;2023-06-14T00:08:05;17.48;;;10.43;;
51006;SDS011;37034;47.886;-3.904;2023-06-14T00:10:35;17.02;;;10.77;;
51006;SDS011;37034;47.886;-3.904;2023-06-14T00:13:03;17.42;;;12.07;;
51006;SDS011;37034;47.886;-3.904;2023-06-14T00:15:30;16.88;;;12.13;;
51006;SDS011;37034;47.886;-3.904;2023-06-14T00:17:56;17.90;;;11.15;;
51006;SDS011;37034;47.886;-3.904;2023-06-14T00:20:25;17.77;;;10.88;;
51006;SDS011;37034;47.886;-3.904;2023-06-14T00:22:56;16.85;;;11.40;;
51006;SDS011;37034;47.886;-3.904;2023-06-14T00:25:24;18.90;;;11.60;;
51006;SDS011;37034;47.886;-3.904;2023-06-14T00:27:51;15.50;;;11.43;;
51006;SDS011;37034;47.886;-3.904;2023-06-14T00:30:17;16.52;;;11.65;;
51006;SDS011;37034;47.886;-3.904;2023-06-14T00:32:43;18.30;;;11.63;;
51006;SDS011;37034;47.886;-3.904;2023-06-14T00:35:10;17.65;;;11.18;;
51006;SDS011;37034;47.886;-3.904;2023-06-14T00:37:36;21.77;;;12.65;;
51006;SDS011;37034;47.886;-3.904;2023-06-14T00:40:02;16.30;;;11.90;;
51006;SDS011;37034;47.886;-3.904;2023-06-14T00:42:29;15.77;;;11.52;;
51006;SDS011;37034;47.886;-3.904;2023-06-14T00:44:55;16.25;;;11.90;;
51006;SDS011;37034;47.886;-3.904;2023-06-14T00:47:21;20.95;;;12.15;;
51006;SDS011;37034;47.886;-3.904;2023-06-14T00:49:47;17.13;;;12.20;;
51006;SDS011;37034;47.886;-3.904;2023-06-14T00:52:16;18.88;;;13.07;;
51006;SDS011;37034;47.886;-3.904;2023-06-14T00:54:42;17.20;;;12.05;;
51006;SDS011;37034;47.886;-3.904;2023-06-14T00:59:38;17.85;;;13.38;;
51006;SDS011;37034;47.886;-3.904;2023-06-14T01:02:10;17.10;;;13.07;;
51006;SDS011;37034;47.886;-3.904;2023-06-14T01:07:15;26.13;;;15.57;;
51006;SDS011;37034;47.886;-3.904;2023-06-14T01:12:24;17.75;;;13.40;;
51006;SDS011;37034;47.886;-3.904;2023-06-14T01:15:00;18.15;;;13.18;;
51006;SDS011;37034;47.886;-3.904;2023-06-14T01:17:28;19.75;;;13.07;;
51006;SDS011;37034;47.886;-3.904;2023-06-14T01:19:58;20.63;;;13.77;;
51006;SDS011;37034;47.886;-3.904;2023-06-14T01:22:26;18.23;;;12.65;;
51006;SDS011;37034;47.886;-3.904;2023-06-14T01:24:52;17.88;;;13.82;;
51006;SDS011;37034;47.886;-3.904;2023-06-14T01:27:23;18.70;;;13.55;;
51006;SDS011;37034;47.886;-3.904;2023-06-14T01:29:53;18.27;;;13.55;;
51006;SDS011;37034;47.886;-3.904;2023-06-14T01:32:24;19.48;;;13.48;;
51006;SDS011;37034;47.886;-3.904;2023-06-14T01:34:53;18.05;;;13.68;;
51006;SDS011;37034;47.886;-3.904;2023-06-14T01:37:19;17.40;;;12.55;;
51006;SDS011;37034;47.886;-3.904;2023-06-14T01:39:46;17.98;;;13.05;;
51006;SDS011;37034;47.886;-3.904;2023-06-14T01:42:15;19.05;;;13.43;;
51006;SDS011;37034;47.886;-3.904;2023-06-14T01:47:07;20.85;;;13.93;;
51006;SDS011;37034;47.886;-3.904;2023-06-14T01:49:34;18.40;;;13.77;;
51006;SDS011;37034;47.886;-3.904;2023-06-14T01:52:00;18.80;;;12.88;;
51006;SDS011;37034;47.886;-3.904;2023-06-14T01:54:26;18.33;;;13.10;;
51006;SDS011;37034;47.886;-3.904;2023-06-14T01:56:52;19.25;;;13.32;;
51006;SDS011;37034;47.886;-3.904;2023-06-14T01:59:18;19.40;;;14.63;;
51006;SDS011;37034;47.886;-3.904;2023-06-14T02:01:44;19.60;;;14.20;;
51006;SDS011;37034;47.886;-3.904;2023-06-14T02:04:12;18.25;;;12.65;;
51006;SDS011;37034;47.886;-3.904;2023-06-14T02:06:38;21.50;;;13.85;;
51006;SDS011;37034;47.886;-3.904;2023-06-14T02:09:04;16.23;;;13.32;;
51006;SDS011;37034;47.886;-3.904;2023-06-14T02:11:29;20.10;;;13.98;;
51006;SDS011;37034;47.886;-3.904;2023-06-14T02:13:55;18.52;;;13.48;;
51006;SDS011;37034;47.886;-3.904;2023-06-14T02:16:21;21.17;;;15.25;;
51006;SDS011;37034;47.886;-3.904;2023-06-14T02:18:47;17.25;;;13.50;;
51006;SDS011;37034;47.886;-3.904;2023-06-14T02:21:13;18.48;;;13.50;;
51006;SDS011;37034;47.886;-3.904;2023-06-14T02:26:05;17.65;;;13.60;;
51006;SDS011;37034;47.886;-3.904;2023-06-14T02:28:31;19.63;;;13.23;;
51006;SDS011;37034;47.886;-3.904;2023-06-14T02:30:56;17.40;;;13.18;;
51006;SDS011;37034;47.886;-3.904;2023-06-14T02:33:22;18.45;;;12.90;;
51006;SDS011;37034;47.886;-3.904;2023-06-14T02:35:48;18.63;;;12.77;;
51006;SDS011;37034;47.886;-3.904;2023-06-14T02:38:13;18.10;;;13.00;;
51006;SDS011;37034;47.886;-3.904;2023-06-14T02:40:39;17.90;;;11.85;;
51006;SDS011;37034;47.886;-3.904;2023-06-14T02:43:07;18.63;;;12.50;;
51006;SDS011;37034;47.886;-3.904;2023-06-14T02:45:33;16.23;;;12.57;;
51006;SDS011;37034;47.886;-3.904;2023-06-14T02:47:58;17.23;;;11.90;;
51006;SDS011;37034;47.886;-3.904;2023-06-14T02:50:24;16.80;;;12.60;;
51006;SDS011;37034;47.886;-3.904;2023-06-14T02:52:50;19.33;;;13.98;;
51006;SDS011;37034;47.886;-3.904;2023-06-14T02:55:17;16.88;;;12.70;;
51006;SDS011;37034;47.886;-3.904;2023-06-14T02:57:43;17.50;;;12.40;;
51006;SDS011;37034;47.886;-3.904;2023-06-14T03:00:08;19.85;;;12.65;;
51006;SDS011;37034;47.886;-3.904;2023-06-14T03:02:38;18.02;;;13.20;;
51006;SDS011;37034;47.886;-3.904;2023-06-14T03:05:03;17.88;;;13.23;;
51006;SDS011;37034;47.886;-3.904;2023-06-14T03:07:31;16.23;;;12.35;;
51006;SDS011;37034;47.886;-3.904;2023-06-14T03:09:57;18.90;;;13.18;;
51006;SDS011;37034;47.886;-3.904;2023-06-14T03:12:23;18.52;;;12.30;;
51006;SDS011;37034;47.886;-3.904;2023-06-14T03:17:16;17.48;;;12.43;;
51006;SDS011;37034;47.886;-3.904;2023-06-14T03:19:42;16.05;;;12.05;;
51006;SDS011;37034;47.886;-3.904;2023-06-14T03:22:08;15.57;;;11.52;;
51006;SDS011;37034;47.886;-3.904;2023-06-14T03:24:34;16.75;;;11.48;;
51006;SDS011;37034;47.886;-3.904;2023-06-14T03:27:01;19.20;;;12.52;;
51006;SDS011;37034;47.886;-3.904;2023-06-14T03:32:00;17.70;;;13.05;;
51006;SDS011;37034;47.886;-3.904;2023-06-14T03:34:26;16.85;;;12.57;;
51006;SDS011;37034;47.886;-3.904;2023-06-14T03:36:52;15.63;;;11.57;;
51006;SDS011;37034;47.886;-3.904;2023-06-14T03:39:18;15.63;;;11.45;;
51006;SDS011;37034;47.886;-3.904;2023-06-14T03:41:44;18.40;;;13.13;;
51006;SDS011;37034;47.886;-3.904;2023-06-14T03:44:10;20.48;;;13.48;;
51006;SDS011;37034;47.886;-3.904;2023-06-14T03:46:36;15.40;;;12.50;;
51006;SDS011;37034;47.886;-3.904;2023-06-14T03:49:02;16.00;;;12.05;;
51006;SDS011;37034;47.886;-3.904;2023-06-14T03:51:28;16.50;;;12.38;;
51006;SDS011;37034;47.886;-3.904;2023-06-14T03:53:54;15.25;;;12.00;;
51006;SDS011;37034;47.886;-3.904;2023-06-14T03:56:21;16.30;;;11.52;;
51006;SDS011;37034;47.886;-3.904;2023-06-14T03:58:47;16.67;;;11.68;;
51006;SDS011;37034;47.886;-3.904;2023-06-14T04:01:13;15.23;;;11.43;;
51006;SDS011;37034;47.886;-3.904;2023-06-14T04:03:39;15.07;;;11.55;;
51006;SDS011;37034;47.886;-3.904;2023-06-14T04:06:05;12.85;;;10.38;;
51006;SDS011;37034;47.886;-3.904;2023-06-14T04:08:31;16.85;;;11.43;;
51006;SDS011;37034;47.886;-3.904;2023-06-14T04:10:57;17.20;;;11.20;;
51006;SDS011;37034;47.886;-3.904;2023-06-14T04:13:23;15.52;;;10.98;;
51006;SDS011;37034;47.886;-3.904;2023-06-14T04:15:48;15.65;;;11.50;;
51006;SDS011;37034;47.886;-3.904;2023-06-14T04:18:14;15.45;;;11.23;;
51006;SDS011;37034;47.886;-3.904;2023-06-14T04:20:40;17.73;;;12.07;;
51006;SDS011;37034;47.886;-3.904;2023-06-14T04:23:12;18.75;;;13.10;;
51006;SDS011;37034;47.886;-3.904;2023-06-14T04:25:43;14.90;;;10.73;;
51006;SDS011;37034;47.886;-3.904;2023-06-14T04:28:14;14.23;;;10.60;;
51006;SDS011;37034;47.886;-3.904;2023-06-14T04:33:06;15.52;;;11.45;;
51006;SDS011;37034;47.886;-3.904;2023-06-14T04:35:33;16.55;;;11.82;;
51006;SDS011;37034;47.886;-3.904;2023-06-14T04:38:01;15.18;;;10.30;;
51006;SDS011;37034;47.886;-3.904;2023-06-14T04:40:29;14.20;;;10.52;;
51006;SDS011;37034;47.886;-3.904;2023-06-14T04:42:56;13.85;;;10.13;;
51006;SDS011;37034;47.886;-3.904;2023-06-14T04:45:22;16.42;;;11.00;;
51006;SDS011;37034;47.886;-3.904;2023-06-14T04:50:15;14.70;;;10.23;;
51006;SDS011;37034;47.886;-3.904;2023-06-14T04:52:43;12.90;;;10.05;;
51006;SDS011;37034;47.886;-3.904;2023-06-14T04:55:08;12.48;;;9.30;;
51006;SDS011;37034;47.886;-3.904;2023-06-14T04:57:35;12.88;;;9.65;;
51006;SDS011;37034;47.886;-3.904;2023-06-14T05:00:00;13.93;;;10.20;;
51006;SDS011;37034;47.886;-3.904;2023-06-14T05:02:29;11.13;;;8.40;;
51006;SDS011;37034;47.886;-3.904;2023-06-14T05:04:55;15.27;;;9.60;;
51006;SDS011;37034;47.886;-3.904;2023-06-14T05:07:21;12.13;;;8.88;;
51006;SDS011;37034;47.886;-3.904;2023-06-14T05:09:49;10.70;;;8.70;;
51006;SDS011;37034;47.886;-3.904;2023-06-14T05:12:14;14.13;;;9.55;;
51006;SDS011;37034;47.886;-3.904;2023-06-14T05:14:43;13.60;;;9.18;;
51006;SDS011;37034;47.886;-3.904;2023-06-14T05:17:09;13.52;;;9.45;;
51006;SDS011;37034;47.886;-3.904;2023-06-14T05:19:35;11.43;;;9.23;;
51006;SDS011;37034;47.886;-3.904;2023-06-14T05:22:01;12.02;;;9.55;;
51006;SDS011;37034;47.886;-3.904;2023-06-14T05:24:28;13.35;;;10.95;;
51006;SDS011;37034;47.886;-3.904;2023-06-14T05:26:55;15.68;;;10.70;;
51006;SDS011;37034;47.886;-3.904;2023-06-14T05:29:21;13.77;;;10.93;;
51006;SDS011;37034;47.886;-3.904;2023-06-14T05:31:47;14.00;;;10.35;;
51006;SDS011;37034;47.886;-3.904;2023-06-14T05:34:12;15.95;;;10.45;;
51006;SDS011;37034;47.886;-3.904;2023-06-14T05:36:38;14.68;;;10.50;;
51006;SDS011;37034;47.886;-3.904;2023-06-14T05:39:04;15.70;;;11.20;;
51006;SDS011;37034;47.886;-3.904;2023-06-14T05:43:56;12.95;;;10.20;;
51006;SDS011;37034;47.886;-3.904;2023-06-14T05:46:22;14.85;;;11.60;;
51006;SDS011;37034;47.886;-3.904;2023-06-14T05:48:52;17.75;;;12.63;;
51006;SDS011;37034;47.886;-3.904;2023-06-14T05:51:18;13.02;;;10.20;;
51006;SDS011;37034;47.886;-3.904;2023-06-14T05:53:47;16.63;;;11.70;;
51006;SDS011;37034;47.886;-3.904;2023-06-14T05:56:14;14.63;;;10.23;;
51006;SDS011;37034;47.886;-3.904;2023-06-14T05:58:40;14.38;;;9.75;;
51006;SDS011;37034;47.886;-3.904;2023-06-14T06:01:06;11.63;;;9.07;;
51006;SDS011;37034;47.886;-3.904;2023-06-14T06:03:32;11.55;;;9.55;;
51006;SDS011;37034;47.886;-3.904;2023-06-14T06:05:58;12.40;;;10.07;;
51006;SDS011;37034;47.886;-3.904;2023-06-14T06:08:24;12.63;;;10.25;;
51006;SDS011;37034;47.886;-3.904;2023-06-14T06:10:49;12.82;;;10.40;;
51006;SDS011;37034;47.886;-3.904;2023-06-14T06:13:15;12.93;;;10.13;;
51006;SDS011;37034;47.886;-3.904;2023-06-14T06:15:41;15.45;;;11.02;;
51006;SDS011;37034;47.886;-3.904;2023-06-14T06:18:07;12.98;;;9.68;;
51006;SDS011;37034;47.886;-3.904;2023-06-14T06:20:32;14.02;;;10.95;;
51006;SDS011;37034;47.886;-3.904;2023-06-14T06:22:58;13.73;;;10.35;;
51006;SDS011;37034;47.886;-3.904;2023-06-14T06:25:25;12.13;;;9.55;;
51006;SDS011;37034;47.886;-3.904;2023-06-14T06:27:56;11.27;;;9.30;;
51006;SDS011;37034;47.886;-3.904;2023-06-14T06:30:22;13.38;;;11.02;;
51006;SDS011;37034;47.886;-3.904;2023-06-14T06:32:48;16.13;;;10.60;;
51006;SDS011;37034;47.886;-3.904;2023-06-14T06:35:14;13.80;;;9.73;;
51006;SDS011;37034;47.886;-3.904;2023-06-14T06:37:41;14.15;;;10.70;;
51006;SDS011;37034;47.886;-3.904;2023-06-14T06:40:07;11.95;;;9.95;;
51006;SDS011;37034;47.886;-3.904;2023-06-14T06:44:59;11.32;;;9.98;;
51006;SDS011;37034;47.886;-3.904;2023-06-14T06:47:25;12.25;;;10.23;;
51006;SDS011;37034;47.886;-3.904;2023-06-14T06:49:51;12.00;;;9.75;;
51006;SDS011;37034;47.886;-3.904;2023-06-14T06:52:17;14.60;;;10.68;;
51006;SDS011;37034;47.886;-3.904;2023-06-14T06:54:42;13.15;;;10.43;;
51006;SDS011;37034;47.886;-3.904;2023-06-14T06:57:08;13.68;;;9.77;;
51006;SDS011;37034;47.886;-3.904;2023-06-14T06:59:35;14.05;;;9.30;;
51006;SDS011;37034;47.886;-3.904;2023-06-14T07:02:02;10.45;;;9.23;;
51006;SDS011;37034;47.886;-3.904;2023-06-14T07:04:28;10.73;;;9.55;;
51006;SDS011;37034;47.886;-3.904;2023-06-14T07:06:53;10.95;;;8.48;;
51006;SDS011;37034;47.886;-3.904;2023-06-14T07:09:19;12.63;;;9.48;;
51006;SDS011;37034;47.886;-3.904;2023-06-14T07:11:46;11.15;;;8.82;;
51006;SDS011;37034;47.886;-3.904;2023-06-14T07:14:12;11.57;;;8.68;;
51006;SDS011;37034;47.886;-3.904;2023-06-14T07:16:38;11.95;;;8.23;;
51006;SDS011;37034;47.886;-3.904;2023-06-14T07:19:04;11.10;;;9.07;;
51006;SDS011;37034;47.886;-3.904;2023-06-14T07:21:30;14.23;;;8.95;;
51006;SDS011;37034;47.886;-3.904;2023-06-14T07:23:56;11.00;;;8.55;;
51006;SDS011;37034;47.886;-3.904;2023-06-14T07:26:21;11.00;;;8.23;;
51006;SDS011;37034;47.886;-3.904;2023-06-14T07:28:48;11.20;;;9.25;;
51006;SDS011;37034;47.886;-3.904;2023-06-14T07:31:14;10.32;;;7.28;;
51006;SDS011;37034;47.886;-3.904;2023-06-14T07:33:41;9.55;;;8.05;;
51006;SDS011;37034;47.886;-3.904;2023-06-14T07:36:07;11.57;;;7.38;;
51006;SDS011;37034;47.886;-3.904;2023-06-14T07:38:33;8.95;;;7.55;;
51006;SDS011;37034;47.886;-3.904;2023-06-14T07:40:59;9.45;;;7.30;;
51006;SDS011;37034;47.886;-3.904;2023-06-14T07:45:51;12.48;;;7.65;;
51006;SDS011;37034;47.886;-3.904;2023-06-14T07:48:17;9.10;;;7.43;;
51006;SDS011;37034;47.886;-3.904;2023-06-14T07:50:43;8.48;;;7.28;;
51006;SDS011;37034;47.886;-3.904;2023-06-14T07:53:08;11.13;;;7.95;;
51006;SDS011;37034;47.886;-3.904;2023-06-14T07:55:34;10.88;;;7.55;;
51006;SDS011;37034;47.886;-3.904;2023-06-14T07:58:02;10.52;;;7.85;;
51006;SDS011;37034;47.886;-3.904;2023-06-14T08:00:28;8.68;;;7.30;;
51006;SDS011;37034;47.886;-3.904;2023-06-14T08:02:54;12.50;;;7.32;;
51006;SDS011;37034;47.886;-3.904;2023-06-14T08:05:24;8.07;;;6.97;;
51006;SDS011;37034;47.886;-3.904;2023-06-14T08:07:53;9.90;;;7.65;;
51006;SDS011;37034;47.886;-3.904;2023-06-14T08:10:19;9.20;;;7.60;;
51006;SDS011;37034;47.886;-3.904;2023-06-14T08:12:45;8.35;;;6.22;;
51006;SDS011;37034;47.886;-3.904;2023-06-14T08:15:10;10.82;;;7.88;;
51006;SDS011;37034;47.886;-3.904;2023-06-14T08:17:36;11.52;;;8.38;;
51006;SDS011;37034;47.886;-3.904;2023-06-14T08:20:02;10.60;;;8.10;;
51006;SDS011;37034;47.886;-3.904;2023-06-14T08:22:30;12.90;;;8.05;;
51006;SDS011;37034;47.886;-3.904;2023-06-14T08:24:59;9.80;;;7.43;;
51006;SDS011;37034;47.886;-3.904;2023-06-14T08:27:28;13.32;;;8.00;;
51006;SDS011;37034;47.886;-3.904;2023-06-14T08:29:54;10.05;;;7.30;;
51006;SDS011;37034;47.886;-3.904;2023-06-14T08:32:20;8.57;;;6.80;;
51006;SDS011;37034;47.886;-3.904;2023-06-14T08:34:45;13.40;;;8.40;;
51006;SDS011;37034;47.886;-3.904;2023-06-14T08:37:11;11.07;;;7.20;;
51006;SDS011;37034;47.886;-3.904;2023-06-14T08:39:37;10.55;;;8.05;;
51006;SDS011;37034;47.886;-3.904;2023-06-14T08:42:03;9.88;;;7.45;;
51006;SDS011;37034;47.886;-3.904;2023-06-14T08:44:31;10.18;;;7.50;;
51006;SDS011;37034;47.886;-3.904;2023-06-14T08:46:57;14.55;;;9.45;;
51006;SDS011;37034;47.886;-3.904;2023-06-14T08:49:25;11.65;;;8.00;;
51006;SDS011;37034;47.886;-3.904;2023-06-14T08:51:58;14.65;;;8.13;;
51006;SDS011;37034;47.886;-3.904;2023-06-14T08:54:28;19.17;;;8.10;;
51006;SDS011;37034;47.886;-3.904;2023-06-14T08:57:00;18.77;;;8.97;;
51006;SDS011;37034;47.886;-3.904;2023-06-14T08:59:29;11.90;;;7.80;;
51006;SDS011;37034;47.886;-3.904;2023-06-14T09:01:58;16.05;;;7.88;;
51006;SDS011;37034;47.886;-3.904;2023-06-14T09:06:54;11.15;;;6.90;;
51006;SDS011;37034;47.886;-3.904;2023-06-14T09:09:20;9.05;;;6.72;;
51006;SDS011;37034;47.886;-3.904;2023-06-14T09:11:48;12.43;;;8.02;;
51006;SDS011;37034;47.886;-3.904;2023-06-14T09:14:21;12.43;;;7.32;;
51006;SDS011;37034;47.886;-3.904;2023-06-14T09:16:48;15.68;;;6.93;;
51006;SDS011;37034;47.886;-3.904;2023-06-14T09:19:21;13.15;;;7.30;;
51006;SDS011;37034;47.886;-3.904;2023-06-14T09:21:48;12.00;;;8.10;;
51006;SDS011;37034;47.886;-3.904;2023-06-14T09:24:14;14.75;;;8.75;;
51006;SDS011;37034;47.886;-3.904;2023-06-14T09:26:40;13.45;;;8.35;;
51006;SDS011;37034;47.886;-3.904;2023-06-14T09:29:05;9.45;;;7.20;;
51006;SDS011;37034;47.886;-3.904;2023-06-14T09:31:31;15.02;;;8.27;;
51006;SDS011;37034;47.886;-3.904;2023-06-14T09:36:24;13.82;;;6.82;;
51006;SDS011;37034;47.886;-3.904;2023-06-14T09:38:57;8.90;;;6.43;;
51006;SDS011;37034;47.886;-3.904;2023-06-14T09:41:38;11.93;;;8.23;;
51006;SDS011;37034;47.886;-3.904;2023-06-14T09:44:08;13.68;;;8.57;;
51006;SDS011;37034;47.886;-3.904;2023-06-14T09:46:35;10.60;;;7.63;;
51006;SDS011;37034;47.886;-3.904;2023-06-14T09:49:01;10.63;;;7.13;;
51006;SDS011;37034;47.886;-3.904;2023-06-14T09:51:28;11.18;;;7.30;;
51006;SDS011;37034;47.886;-3.904;2023-06-14T09:53:57;12.65;;;7.80;;
51006;SDS011;37034;47.886;-3.904;2023-06-14T09:58:57;10.02;;;8.07;;
51006;SDS011;37034;47.886;-3.904;2023-06-14T10:01:24;10.57;;;6.43;;
51006;SDS011;37034;47.886;-3.904;2023-06-14T10:03:55;10.77;;;7.32;;
51006;SDS011;37034;47.886;-3.904;2023-06-14T10:06:24;12.68;;;7.05;;
51006;SDS011;37034;47.886;-3.904;2023-06-14T10:08:55;8.50;;;6.15;;
51006;SDS011;37034;47.886;-3.904;2023-06-14T10:11:25;9.20;;;6.88;;
51006;SDS011;37034;47.886;-3.904;2023-06-14T10:13:51;8.98;;;6.53;;
51006;SDS011;37034;47.886;-3.904;2023-06-14T10:16:25;9.50;;;7.15;;
51006;SDS011;37034;47.886;-3.904;2023-06-14T10:24:43;7.32;;;6.63;;
51006;SDS011;37034;47.886;-3.904;2023-06-14T10:27:09;8.55;;;6.28;;
51006;SDS011;37034;47.886;-3.904;2023-06-14T10:32:20;13.07;;;6.45;;
51006;SDS011;37034;47.886;-3.904;2023-06-14T10:34:46;7.22;;;6.07;;
51006;SDS011;37034;47.886;-3.904;2023-06-14T10:37:20;9.38;;;6.35;;
51006;SDS011;37034;47.886;-3.904;2023-06-14T10:39:46;8.75;;;5.90;;
51006;SDS011;37034;47.886;-3.904;2023-06-14T10:42:12;11.02;;;7.55;;
51006;SDS011;37034;47.886;-3.904;2023-06-14T10:47:19;7.55;;;5.80;;
51006;SDS011;37034;47.886;-3.904;2023-06-14T10:50:05;9.18;;;5.05;;
51006;SDS011;37034;47.886;-3.904;2023-06-14T10:52:36;9.53;;;5.57;;
51006;SDS011;37034;47.886;-3.904;2023-06-14T10:55:05;11.05;;;6.57;;
51006;SDS011;37034;47.886;-3.904;2023-06-14T10:57:49;11.52;;;6.15;;
51006;SDS011;37034;47.886;-3.904;2023-06-14T11:00:17;9.27;;;6.60;;
51006;SDS011;37034;47.886;-3.904;2023-06-14T11:03:12;10.48;;;6.43;;
51006;SDS011;37034;47.886;-3.904;2023-06-14T11:06:10;11.20;;;5.82;;
51006;SDS011;37034;47.886;-3.904;2023-06-14T11:11:35;11.90;;;6.50;;
51006;SDS011;37034;47.886;-3.904;2023-06-14T11:14:03;8.38;;;6.82;;
51006;SDS011;37034;47.886;-3.904;2023-06-14T11:18:58;13.68;;;6.40;;
51006;SDS011;37034;47.886;-3.904;2023-06-14T11:21:26;8.77;;;7.03;;
51006;SDS011;37034;47.886;-3.904;2023-06-14T11:23:56;10.57;;;7.50;;
51006;SDS011;37034;47.886;-3.904;2023-06-14T11:28:55;9.98;;;6.28;;
51006;SDS011;37034;47.886;-3.904;2023-06-14T11:31:25;11.73;;;6.40;;
51006;SDS011;37034;47.886;-3.904;2023-06-14T11:33:53;10.57;;;6.50;;
51006;SDS011;37034;47.886;-3.904;2023-06-14T11:36:20;27.63;;;6.40;;
51006;SDS011;37034;47.886;-3.904;2023-06-14T11:41:11;8.48;;;5.75;;
51006;SDS011;37034;47.886;-3.904;2023-06-14T11:46:04;10.35;;;6.28;;
51006;SDS011;37034;47.886;-3.904;2023-06-14T11:48:40;8.52;;;5.72;;
51006;SDS011;37034;47.886;-3.904;2023-06-14T11:51:07;8.57;;;6.25;;
51006;SDS011;37034;47.886;-3.904;2023-06-14T11:55:59;7.38;;;5.72;;
51006;SDS011;37034;47.886;-3.904;2023-06-14T12:00:52;13.93;;;5.35;;
51006;SDS011;37034;47.886;-3.904;2023-06-14T12:03:22;9.98;;;5.88;;
51006;SDS011;37034;47.886;-3.904;2023-06-14T12:06:04;10.48;;;5.82;;
51006;SDS011;37034;47.886;-3.904;2023-06-14T12:08:35;8.43;;;5.15;;
51006;SDS011;37034;47.886;-3.904;2023-06-14T12:11:06;7.57;;;5.20;;
51006;SDS011;37034;47.886;-3.904;2023-06-14T12:13:41;7.63;;;5.68;;
51006;SDS011;37034;47.886;-3.904;2023-06-14T12:16:10;5.68;;;4.68;;
51006;SDS011;37034;47.886;-3.904;2023-06-14T12:18:37;14.25;;;5.10;;
51006;SDS011;37034;47.886;-3.904;2023-06-14T12:21:06;9.40;;;5.15;;
51006;SDS011;37034;47.886;-3.904;2023-06-14T12:26:12;7.50;;;4.90;;
51006;SDS011;37034;47.886;-3.904;2023-06-14T12:28:40;11.90;;;5.50;;
51006;SDS011;37034;47.886;-3.904;2023-06-14T12:31:07;6.43;;;5.20;;
51006;SDS011;37034;47.886;-3.904;2023-06-14T12:35:59;7.97;;;4.80;;
51006;SDS011;37034;47.886;-3.904;2023-06-14T12:40:50;9.30;;;5.45;;
51006;SDS011;37034;47.886;-3.904;2023-06-14T12:45:41;9.93;;;5.53;;
51006;SDS011;37034;47.886;-3.904;2023-06-14T12:50:34;8.53;;;4.67;;
51006;SDS011;37034;47.886;-3.904;2023-06-14T12:55:25;8.38;;;4.70;;
51006;SDS011;37034;47.886;-3.904;2023-06-14T13:00:16;8.73;;;4.95;;
51006;SDS011;37034;47.886;-3.904;2023-06-14T13:02:43;13.10;;;5.57;;
51006;SDS011;37034;47.886;-3.904;2023-06-14T13:07:34;8.57;;;4.75;;
51006;SDS011;37034;47.886;-3.904;2023-06-14T13:12:25;11.65;;;4.90;;
51006;SDS011;37034;47.886;-3.904;2023-06-14T13:17:17;11.10;;;5.10;;
51006;SDS011;37034;47.886;-3.904;2023-06-14T13:22:08;10.60;;;5.50;;
51006;SDS011;37034;47.886;-3.904;2023-06-14T13:26:59;8.38;;;5.15;;
51006;SDS011;37034;47.886;-3.904;2023-06-14T13:31:51;9.13;;;4.97;;
51006;SDS011;37034;47.886;-3.904;2023-06-14T13:34:17;10.02;;;5.75;;
51006;SDS011;37034;47.886;-3.904;2023-06-14T13:36:43;7.03;;;5.13;;
51006;SDS011;37034;47.886;-3.904;2023-06-14T13:39:09;7.47;;;5.10;;
51006;SDS011;37034;47.886;-3.904;2023-06-14T13:41:36;12.40;;;5.85;;
51006;SDS011;37034;47.886;-3.904;2023-06-14T13:44:02;6.57;;;5.68;;
51006;SDS011;37034;47.886;-3.904;2023-06-14T13:46:30;10.13;;;5.50;;
51006;SDS011;37034;47.886;-3.904;2023-06-14T13:48:56;7.60;;;5.85;;
51006;SDS011;37034;47.886;-3.904;2023-06-14T13:51:23;13.40;;;6.00;;
51006;SDS011;37034;47.886;-3.904;2023-06-14T13:53:49;6.60;;;5.38;;
51006;SDS011;37034;47.886;-3.904;2023-06-14T13:56:15;7.10;;;5.38;;
51006;SDS011;37034;47.886;-3.904;2023-06-14T13:58:42;8.80;;;6.07;;
51006;SDS011;37034;47.886;-3.904;2023-06-14T14:01:08;9.32;;;5.68;;
51006;SDS011;37034;47.886;-3.904;2023-06-14T14:03:34;8.35;;;5.13;;
51006;SDS011;37034;47.886;-3.904;2023-06-14T14:06:01;9.98;;;6.05;;
51006;SDS011;37034;47.886;-3.904;2023-06-14T14:08:28;9.45;;;5.43;;
51006;SDS011;37034;47.886;-3.904;2023-06-14T14:10:54;7.95;;;5.50;;
51006;SDS011;37034;47.886;-3.904;2023-06-14T14:13:20;6.43;;;5.28;;
51006;SDS011;37034;47.886;-3.904;2023-06-14T14:15:46;8.82;;;4.82;;
51006;SDS011;37034;47.886;-3.904;2023-06-14T14:18:14;7.43;;;5.15;;
51006;SDS011;37034;47.886;-3.904;2023-06-14T14:20:40;11.13;;;5.68;;
51006;SDS011;37034;47.886;-3.904;2023-06-14T14:23:05;10.82;;;5.07;;
51006;SDS011;37034;47.886;-3.904;2023-06-14T14:25:31;8.07;;;5.70;;
51006;SDS011;37034;47.886;-3.904;2023-06-14T14:30:22;7.75;;;5.28;;
51006;SDS011;37034;47.886;-3.904;2023-06-14T14:35:15;10.15;;;6.00;;
51006;SDS011;37034;47.886;-3.904;2023-06-14T14:37:42;8.82;;;5.78;;
51006;SDS011;37034;47.886;-3.904;2023-06-14T14:40:08;9.25;;;5.60;;
51006;SDS011;37034;47.886;-3.904;2023-06-14T14:42:35;7.63;;;5.60;;
51006;SDS011;37034;47.886;-3.904;2023-06-14T14:45:01;8.90;;;5.57;;
51006;SDS011;37034;47.886;-3.904;2023-06-14T14:47:27;8.10;;;5.15;;
51006;SDS011;37034;47.886;-3.904;2023-06-14T14:52:18;10.88;;;5.20;;
51006;SDS011;37034;47.886;-3.904;2023-06-14T14:54:44;9.93;;;5.70;;
51006;SDS011;37034;47.886;-3.904;2023-06-14T14:59:35;8.07;;;5.43;;
51006;SDS011;37034;47.886;-3.904;2023-06-14T15:02:01;10.10;;;5.50;;
51006;SDS011;37034;47.886;-3.904;2023-06-14T15:04:27;8.85;;;5.88;;
51006;SDS011;37034;47.886;-3.904;2023-06-14T15:06:52;8.10;;;5.63;;
51006;SDS011;37034;47.886;-3.904;2023-06-14T15:11:43;8.55;;;5.75;;
51006;SDS011;37034;47.886;-3.904;2023-06-14T15:16:35;11.98;;;4.85;;
51006;SDS011;37034;47.886;-3.904;2023-06-14T15:21:26;7.03;;;5.68;;
51006;SDS011;37034;47.886;-3.904;2023-06-14T15:23:52;9.27;;;5.97;;
51006;SDS011;37034;47.886;-3.904;2023-06-14T15:28:44;6.20;;;5.07;;
51006;SDS011;37034;47.886;-3.904;2023-06-14T15:31:10;7.80;;;5.45;;
51006;SDS011;37034;47.886;-3.904;2023-06-14T15:36:01;9.90;;;6.15;;
51006;SDS011;37034;47.886;-3.904;2023-06-14T15:38:27;10.65;;;6.03;;
51006;SDS011;37034;47.886;-3.904;2023-06-14T15:40:53;59.13;;;30.70;;
51006;SDS011;37034;47.886;-3.904;2023-06-14T15:43:19;10.93;;;6.38;;
51006;SDS011;37034;47.886;-3.904;2023-06-14T15:45:45;8.85;;;6.13;;
51006;SDS011;37034;47.886;-3.904;2023-06-14T15:48:11;40.17;;;9.23;;
51006;SDS011;37034;47.886;-3.904;2023-06-14T15:53:02;13.45;;;6.03;;
51006;SDS011;37034;47.886;-3.904;2023-06-14T15:55:28;9.10;;;6.10;;
51006;SDS011;37034;47.886;-3.904;2023-06-14T15:57:53;10.52;;;6.65;;
51006;SDS011;37034;47.886;-3.904;2023-06-14T16:00:19;8.43;;;6.90;;
51006;SDS011;37034;47.886;-3.904;2023-06-14T16:02:45;8.25;;;6.28;;
51006;SDS011;37034;47.886;-3.904;2023-06-14T16:05:11;12.10;;;6.43;;
51006;SDS011;37034;47.886;-3.904;2023-06-14T16:07:38;13.18;;;5.78;;
51006;SDS011;37034;47.886;-3.904;2023-06-14T16:10:03;9.07;;;6.32;;
51006;SDS011;37034;47.886;-3.904;2023-06-14T16:12:29;13.57;;;6.20;;
51006;SDS011;37034;47.886;-3.904;2023-06-14T16:17:20;9.55;;;6.80;;
51006;SDS011;37034;47.886;-3.904;2023-06-14T16:19:46;16.35;;;6.38;;
51006;SDS011;37034;47.886;-3.904;2023-06-14T16:24:37;11.55;;;6.25;;
51006;SDS011;37034;47.886;-3.904;2023-06-14T16:27:03;9.90;;;6.63;;